createdAt,value
2019-03-04T00:00:23.881Z,71.46
2019-03-04T00:01:23.954Z,71.77
2019-03-04T00:02:23.816Z,71.77
2019-03-04T00:03:27.885Z,71.97
2019-03-04T00:04:23.853Z,71.56
2019-03-04T00:05:23.808Z,72.08
2019-03-04T00:06:23.812Z,70.85
2019-03-04T00:07:23.758Z,71.36
2019-03-04T00:08:25.367Z,71.73
2019-03-04T00:09:23.747Z,71.67
2019-03-04T00:10:24.092Z,70.54
2019-03-04T00:11:23.763Z,70.85
2019-03-04T00:12:23.795Z,70.31
2019-03-04T00:13:25.674Z,70.41
2019-03-04T00:14:24.413Z,70.10
2019-03-04T00:15:23.903Z,70.31
2019-03-04T00:16:23.675Z,70.51
2019-03-04T00:17:23.706Z,71.73
2019-03-04T00:18:23.687Z,71.06
2019-03-04T00:19:23.642Z,70.10
2019-03-04T00:20:23.638Z,69.80
2019-03-04T00:21:23.633Z,70.48
2019-03-04T00:22:23.695Z,69.70
2019-03-04T00:23:24.716Z,70.21
2019-03-04T00:24:23.617Z,70.21
2019-03-04T00:25:23.631Z,70.00
2019-03-04T00:26:26.364Z,69.80
2019-03-04T00:27:23.751Z,69.19
2019-03-04T00:28:23.556Z,69.56
2019-03-04T00:29:23.698Z,70.21
2019-03-04T00:30:23.538Z,70.10
2019-03-04T00:31:23.502Z,70.31
2019-03-04T00:32:23.492Z,70.10
2019-03-04T00:33:23.470Z,69.90
2019-03-04T00:34:24.256Z,70.41
2019-03-04T00:35:23.462Z,69.90
2019-03-04T00:36:25.376Z,69.90
2019-03-04T00:37:23.500Z,70.31
2019-03-04T00:38:23.555Z,70.00
2019-03-04T00:39:24.169Z,69.90
2019-03-04T00:40:23.413Z,69.59
2019-03-04T00:41:23.546Z,69.90
2019-03-04T00:42:23.390Z,70.00
2019-03-04T00:43:24.363Z,69.90
2019-03-04T00:44:23.441Z,69.59
2019-03-04T00:45:23.405Z,69.83
2019-03-04T00:46:23.349Z,70.04
2019-03-04T00:47:23.343Z,70.14
2019-03-04T00:48:23.308Z,70.41
2019-03-04T00:49:23.345Z,70.31
2019-03-04T00:50:23.322Z,69.80
2019-03-04T00:51:23.468Z,69.93
2019-03-04T00:52:23.426Z,69.83
2019-03-04T00:53:24.401Z,70.34
2019-03-04T00:54:23.243Z,69.90
2019-03-04T00:55:24.886Z,70.10
2019-03-04T00:56:23.444Z,70.24
2019-03-04T00:57:23.236Z,70.04
2019-03-04T00:58:23.215Z,70.44
2019-03-04T00:59:23.245Z,70.54
2019-03-04T01:00:25.879Z,70.75
2019-03-04T01:01:23.185Z,69.93
2019-03-04T01:02:23.167Z,70.75
2019-03-04T01:03:23.147Z,70.65
2019-03-04T01:04:23.178Z,70.75
2019-03-04T01:05:23.152Z,71.19
2019-03-04T01:06:23.110Z,70.89
2019-03-04T01:07:23.235Z,71.91
2019-03-04T01:08:23.090Z,71.15
2019-03-04T01:09:23.085Z,70.65
2019-03-04T01:10:23.107Z,70.78
2019-03-04T01:11:23.202Z,71.36
2019-03-04T01:12:23.048Z,71.91
2019-03-04T01:13:23.214Z,70.68
2019-03-04T01:14:23.195Z,71.39
2019-03-04T01:15:23.047Z,70.68
2019-03-04T01:16:23.057Z,70.68
2019-03-04T01:17:23.020Z,70.78
2019-03-04T01:18:23.028Z,70.54
2019-03-04T01:19:23.062Z,70.68
2019-03-04T01:20:22.969Z,70.37
2019-03-04T01:21:23.761Z,69.93
2019-03-04T01:22:23.034Z,70.85
2019-03-04T01:23:23.923Z,71.39
2019-03-04T01:24:22.915Z,70.89
2019-03-04T01:25:22.954Z,70.89
2019-03-04T01:26:22.934Z,70.68
2019-03-04T01:27:22.892Z,70.89
2019-03-04T01:28:22.863Z,70.89
2019-03-04T01:29:22.856Z,70.78
2019-03-04T01:30:23.365Z,70.89
2019-03-04T01:31:22.882Z,70.68
2019-03-04T01:32:22.820Z,71.09
2019-03-04T01:33:22.812Z,70.98
2019-03-04T01:34:22.924Z,70.78
2019-03-04T01:35:22.895Z,70.75
2019-03-04T01:36:22.779Z,70.89
2019-03-04T01:37:22.847Z,70.27
2019-03-04T01:38:22.781Z,70.34
2019-03-04T01:39:22.793Z,70.48
2019-03-04T01:40:22.953Z,70.17
2019-03-04T01:41:23.456Z,70.07
2019-03-04T01:42:22.803Z,69.93
2019-03-04T01:43:22.796Z,70.24
2019-03-04T01:44:23.852Z,69.86
2019-03-04T01:45:22.743Z,69.63
2019-03-04T01:46:22.707Z,70.07
2019-03-04T01:47:22.889Z,69.96
2019-03-04T01:48:25.656Z,69.96
2019-03-04T01:49:22.661Z,69.93
2019-03-04T01:50:22.629Z,69.93
2019-03-04T01:51:22.673Z,70.04
2019-03-04T01:52:22.704Z,69.83
2019-03-04T01:53:22.651Z,70.07
2019-03-04T01:54:22.579Z,70.07
2019-03-04T01:55:22.617Z,70.07
2019-03-04T01:56:22.775Z,70.07
2019-03-04T01:57:22.715Z,70.17
2019-03-04T01:58:22.572Z,69.96
2019-03-04T01:59:22.739Z,70.17
2019-03-04T02:00:22.598Z,69.93
2019-03-04T02:01:22.502Z,69.96
2019-03-04T02:02:22.501Z,69.76
2019-03-04T02:03:23.146Z,69.22
2019-03-04T02:04:22.470Z,69.32
2019-03-04T02:05:22.453Z,69.22
2019-03-04T02:06:22.455Z,69.02
2019-03-04T02:07:23.467Z,68.71
2019-03-04T02:08:22.450Z,68.81
2019-03-04T02:09:22.403Z,68.81
2019-03-04T02:10:22.399Z,69.22
2019-03-04T02:11:23.449Z,69.42
2019-03-04T02:12:22.421Z,69.15
2019-03-04T02:13:22.414Z,69.12
2019-03-04T02:14:22.868Z,68.81
2019-03-04T02:15:22.349Z,68.91
2019-03-04T02:16:22.396Z,68.71
2019-03-04T02:17:22.342Z,69.53
2019-03-04T02:18:22.367Z,69.32
2019-03-04T02:19:22.327Z,69.32
2019-03-04T02:20:22.284Z,69.22
2019-03-04T02:21:23.344Z,69.05
2019-03-04T02:22:22.287Z,68.71
2019-03-04T02:23:22.381Z,68.81
2019-03-04T02:24:23.174Z,69.02
2019-03-04T02:25:22.231Z,68.91
2019-03-04T02:26:22.220Z,69.22
2019-03-04T02:27:22.264Z,69.32
2019-03-04T02:28:22.198Z,69.32
2019-03-04T02:29:22.268Z,69.02
2019-03-04T02:30:22.866Z,69.12
2019-03-04T02:31:22.176Z,69.02
2019-03-04T02:32:22.163Z,68.81
2019-03-04T02:33:22.228Z,69.12
2019-03-04T02:34:22.221Z,68.91
2019-03-04T02:35:22.130Z,69.09
2019-03-04T02:36:22.157Z,69.22
2019-03-04T02:37:22.211Z,68.91
2019-03-04T02:38:22.099Z,69.02
2019-03-04T02:39:22.072Z,69.02
2019-03-04T02:40:22.129Z,69.42
2019-03-04T02:41:22.065Z,68.81
2019-03-04T02:42:22.899Z,69.12
2019-03-04T02:43:22.866Z,69.12
2019-03-04T02:44:22.021Z,69.02
2019-03-04T02:45:22.049Z,69.32
2019-03-04T02:46:22.011Z,69.02
2019-03-04T02:47:21.994Z,68.91
2019-03-04T02:48:22.105Z,69.53
2019-03-04T02:49:21.963Z,69.12
2019-03-04T02:50:21.989Z,69.12
2019-03-04T02:51:21.945Z,69.12
2019-03-04T02:52:22.146Z,68.71
2019-03-04T02:53:21.969Z,68.81
2019-03-04T02:54:21.913Z,68.95
2019-03-04T02:55:21.948Z,69.02
2019-03-04T02:56:21.901Z,69.02
2019-03-04T02:57:21.884Z,68.91
2019-03-04T02:58:21.924Z,68.84
2019-03-04T02:59:21.877Z,69.15
2019-03-04T03:00:21.848Z,69.53
2019-03-04T03:01:21.869Z,68.95
2019-03-04T03:02:21.819Z,69.12
2019-03-04T03:03:21.814Z,69.02
2019-03-04T03:04:21.871Z,68.51
2019-03-04T03:05:21.787Z,69.02
2019-03-04T03:06:21.806Z,69.02
2019-03-04T03:07:21.839Z,68.84
2019-03-04T03:08:21.786Z,69.35
2019-03-04T03:09:21.769Z,68.91
2019-03-04T03:10:21.751Z,69.02
2019-03-04T03:11:22.709Z,69.15
2019-03-04T03:12:21.764Z,68.84
2019-03-04T03:13:21.762Z,68.74
2019-03-04T03:14:21.696Z,68.84
2019-03-04T03:15:22.723Z,69.56
2019-03-04T03:16:21.738Z,68.95
2019-03-04T03:17:21.655Z,69.25
2019-03-04T03:18:21.657Z,69.25
2019-03-04T03:19:21.684Z,69.25
2019-03-04T03:20:21.685Z,69.96
2019-03-04T03:21:21.608Z,69.86
2019-03-04T03:22:21.625Z,69.79
2019-03-04T03:23:21.636Z,70.40
2019-03-04T03:24:22.368Z,69.79
2019-03-04T03:25:22.629Z,70.31
2019-03-04T03:26:22.454Z,69.96
2019-03-04T03:27:24.919Z,68.84
2019-03-04T03:28:22.444Z,69.25
2019-03-04T03:29:21.519Z,68.95
2019-03-04T03:30:21.531Z,69.05
2019-03-04T03:31:21.513Z,68.84
2019-03-04T03:32:21.494Z,69.05
2019-03-04T03:33:21.513Z,69.59
2019-03-04T03:34:21.493Z,70.31
2019-03-04T03:35:21.477Z,69.90
2019-03-04T03:36:21.459Z,70.00
2019-03-04T03:37:22.383Z,69.79
2019-03-04T03:38:22.181Z,69.79
2019-03-04T03:39:21.415Z,70.10
2019-03-04T03:40:21.432Z,69.90
2019-03-04T03:41:21.394Z,70.00
2019-03-04T03:42:21.394Z,70.10
2019-03-04T03:43:21.425Z,70.40
2019-03-04T03:44:21.381Z,70.54
2019-03-04T03:45:21.371Z,70.00
2019-03-04T03:46:21.406Z,70.72
2019-03-04T03:47:21.414Z,70.64
2019-03-04T03:48:21.343Z,71.26
2019-03-04T03:49:21.307Z,70.75
2019-03-04T03:50:21.316Z,70.95
2019-03-04T03:51:21.292Z,70.54
2019-03-04T03:52:21.287Z,71.05
2019-03-04T03:53:21.294Z,71.05
2019-03-04T03:54:21.248Z,70.34
2019-03-04T03:55:21.889Z,70.14
2019-03-04T03:56:21.332Z,70.34
2019-03-04T03:57:21.886Z,70.31
2019-03-04T03:58:21.234Z,69.79
2019-03-04T03:59:21.237Z,69.69
2019-03-04T04:00:21.935Z,69.49
2019-03-04T04:01:21.187Z,68.67
2019-03-04T04:02:21.214Z,69.18
2019-03-04T04:03:21.188Z,68.91
2019-03-04T04:04:21.141Z,68.77
2019-03-04T04:05:21.126Z,69.29
2019-03-04T04:06:21.127Z,68.98
2019-03-04T04:07:21.116Z,69.49
2019-03-04T04:08:21.178Z,69.29
2019-03-04T04:09:21.155Z,69.38
2019-03-04T04:10:21.083Z,69.08
2019-03-04T04:11:21.099Z,68.98
2019-03-04T04:12:21.877Z,68.98
2019-03-04T04:13:21.881Z,68.67
2019-03-04T04:14:21.163Z,68.57
2019-03-04T04:15:21.037Z,68.57
2019-03-04T04:16:21.102Z,67.62
2019-03-04T04:17:21.036Z,67.62
2019-03-04T04:18:20.994Z,66.80
2019-03-04T04:19:21.016Z,66.80
2019-03-04T04:20:20.977Z,66.50
2019-03-04T04:21:20.954Z,66.80
2019-03-04T04:22:21.030Z,66.91
2019-03-04T04:23:23.910Z,66.09
2019-03-04T04:24:20.963Z,65.99
2019-03-04T04:25:21.887Z,65.37
2019-03-04T04:26:20.900Z,65.14
2019-03-04T04:27:20.895Z,65.04
2019-03-04T04:28:20.869Z,64.94
2019-03-04T04:29:20.866Z,64.84
2019-03-04T04:30:20.947Z,65.28
2019-03-04T04:31:20.845Z,65.37
2019-03-04T04:32:20.847Z,65.48
2019-03-04T04:33:20.818Z,65.25
2019-03-04T04:34:21.508Z,65.28
2019-03-04T04:35:22.679Z,65.65
2019-03-04T04:36:23.482Z,64.87
2019-03-04T04:37:21.000Z,64.32
2019-03-04T04:38:21.027Z,64.09
2019-03-04T04:39:20.790Z,64.40
2019-03-04T04:40:22.678Z,64.20
2019-03-04T04:41:20.747Z,64.94
2019-03-04T04:42:21.458Z,64.02
2019-03-04T04:43:20.772Z,64.09
2019-03-04T04:44:20.697Z,64.02
2019-03-04T04:45:21.733Z,63.92
2019-03-04T04:46:20.708Z,63.38
2019-03-04T04:47:21.472Z,62.66
2019-03-04T04:48:20.643Z,62.87
2019-03-04T04:49:20.770Z,61.61
2019-03-04T04:50:23.839Z,62.46
2019-03-04T04:51:20.633Z,62.33
2019-03-04T04:52:20.608Z,61.65
2019-03-04T04:53:20.629Z,62.13
2019-03-04T04:54:20.618Z,61.72
2019-03-04T04:55:20.579Z,62.05
2019-03-04T04:56:20.587Z,61.85
2019-03-04T04:57:20.547Z,62.05
2019-03-04T04:58:20.541Z,62.23
2019-03-04T04:59:20.531Z,61.75
2019-03-04T05:00:20.517Z,61.41
2019-03-04T05:01:20.530Z,61.93
2019-03-04T05:02:20.508Z,61.52
2019-03-04T05:03:20.481Z,61.00
2019-03-04T05:04:20.505Z,61.31
2019-03-04T05:05:20.651Z,61.52
2019-03-04T05:06:20.554Z,61.61
2019-03-04T05:07:20.438Z,61.82
2019-03-04T05:08:20.423Z,61.00
2019-03-04T05:09:20.416Z,60.80
2019-03-04T05:10:22.416Z,60.80
2019-03-04T05:11:20.395Z,61.41
2019-03-04T05:12:20.411Z,61.41
2019-03-04T05:13:20.373Z,60.70
2019-03-04T05:14:20.413Z,61.72
2019-03-04T05:15:20.449Z,59.99
2019-03-04T05:16:20.933Z,58.36
2019-03-04T05:17:20.407Z,58.44
2019-03-04T05:18:20.957Z,58.94
2019-03-04T05:19:20.338Z,59.58
2019-03-04T05:20:20.307Z,59.78
2019-03-04T05:21:20.282Z,59.48
2019-03-04T05:22:20.321Z,60.30
2019-03-04T05:23:20.366Z,59.78
2019-03-04T05:24:20.319Z,60.60
2019-03-04T05:25:20.244Z,61.00
2019-03-04T05:26:20.314Z,60.22
2019-03-04T05:27:20.210Z,60.73
2019-03-04T05:28:20.367Z,60.80
2019-03-04T05:29:20.199Z,60.12
2019-03-04T05:30:25.898Z,60.32
2019-03-04T05:31:20.163Z,60.83
2019-03-04T05:32:20.905Z,61.04
2019-03-04T05:33:20.179Z,61.75
2019-03-04T05:34:20.154Z,61.95
2019-03-04T05:35:20.136Z,61.85
2019-03-04T05:36:20.160Z,61.85
2019-03-04T05:37:20.146Z,61.24
2019-03-04T05:38:21.903Z,61.65
2019-03-04T05:39:20.098Z,61.14
2019-03-04T05:40:20.115Z,61.34
2019-03-04T05:41:20.073Z,60.73
2019-03-04T05:42:20.070Z,60.73
2019-03-04T05:43:21.717Z,61.34
2019-03-04T05:44:20.025Z,61.65
2019-03-04T05:45:20.011Z,61.54
2019-03-04T05:46:20.012Z,62.16
2019-03-04T05:47:19.996Z,61.95
2019-03-04T05:48:20.073Z,61.47
2019-03-04T05:49:19.979Z,62.08
2019-03-04T05:50:20.997Z,61.37
2019-03-04T05:51:21.869Z,61.88
2019-03-04T05:52:19.938Z,61.78
2019-03-04T05:53:19.931Z,61.27
2019-03-04T05:54:19.945Z,61.14
2019-03-04T05:55:19.933Z,61.14
2019-03-04T05:56:19.896Z,61.37
2019-03-04T05:57:19.885Z,62.49
2019-03-04T05:58:19.888Z,63.31
2019-03-04T05:59:20.277Z,64.66
2019-03-04T06:00:19.847Z,65.58
2019-03-04T06:01:21.371Z,66.33
2019-03-04T06:02:19.830Z,67.45
2019-03-04T06:03:19.821Z,69.56
2019-03-04T06:04:20.382Z,69.65
2019-03-04T06:05:19.814Z,70.37
2019-03-04T06:06:19.839Z,70.10
2019-03-04T06:07:19.770Z,70.30
2019-03-04T06:08:19.760Z,70.27
2019-03-04T06:09:20.805Z,68.53
2019-03-04T06:10:19.948Z,68.84
2019-03-04T06:11:19.728Z,68.94
2019-03-04T06:12:19.730Z,68.74
2019-03-04T06:13:20.396Z,68.19
2019-03-04T06:14:19.686Z,68.50
2019-03-04T06:15:19.792Z,68.09
2019-03-04T06:16:19.715Z,68.30
2019-03-04T06:17:19.664Z,68.50
2019-03-04T06:18:19.806Z,67.99
2019-03-04T06:19:19.661Z,67.79
2019-03-04T06:20:19.707Z,67.18
2019-03-04T06:21:19.656Z,67.27
2019-03-04T06:22:19.620Z,67.68
2019-03-04T06:23:19.598Z,66.49
2019-03-04T06:24:19.652Z,66.36
2019-03-04T06:25:19.656Z,65.74
2019-03-04T06:26:19.576Z,66.15
2019-03-04T06:27:20.474Z,66.36
2019-03-04T06:28:19.559Z,66.97
2019-03-04T06:29:19.540Z,66.86
2019-03-04T06:30:20.514Z,66.97
2019-03-04T06:31:20.275Z,66.15
2019-03-04T06:32:23.493Z,66.86
2019-03-04T06:33:19.749Z,67.18
2019-03-04T06:34:19.523Z,66.46
2019-03-04T06:35:20.442Z,65.95
2019-03-04T06:36:19.450Z,65.77
2019-03-04T06:37:19.463Z,66.90
2019-03-04T06:38:19.432Z,66.59
2019-03-04T06:39:19.412Z,66.28
2019-03-04T06:40:19.507Z,66.28
2019-03-04T06:41:19.418Z,65.37
2019-03-04T06:42:19.397Z,65.67
2019-03-04T06:43:19.468Z,65.57
2019-03-04T06:44:19.355Z,65.60
2019-03-04T06:45:19.353Z,65.40
2019-03-04T06:46:19.404Z,65.50
2019-03-04T06:47:19.379Z,65.30
2019-03-04T06:48:19.406Z,64.58
2019-03-04T06:49:19.342Z,64.68
2019-03-04T06:50:19.327Z,64.68
2019-03-04T06:51:19.416Z,64.30
2019-03-04T06:52:19.288Z,65.02
2019-03-04T06:53:19.270Z,60.83
2019-03-04T06:54:19.278Z,59.80
2019-03-04T06:55:19.940Z,59.80
2019-03-04T06:56:19.300Z,53.67
2019-03-04T06:57:28.213Z,56.74
2019-03-04T06:58:20.229Z,56.02
2019-03-04T06:59:19.185Z,58.09
2019-03-04T07:00:19.187Z,57.28
2019-03-04T07:01:19.184Z,56.25
2019-03-04T07:02:19.930Z,55.74
2019-03-04T07:03:19.154Z,55.43
2019-03-04T07:04:19.128Z,54.21
2019-03-04T07:05:19.127Z,54.41
2019-03-04T07:06:22.888Z,54.41
2019-03-04T07:07:19.150Z,55.56
2019-03-04T07:08:19.092Z,54.54
2019-03-04T07:09:19.083Z,54.33
2019-03-04T07:10:19.263Z,54.44
2019-03-04T07:11:21.957Z,55.36
2019-03-04T07:12:19.060Z,55.77
2019-03-04T07:13:19.052Z,55.90
2019-03-04T07:14:19.023Z,56.10
2019-03-04T07:15:19.024Z,55.79
2019-03-04T07:16:19.039Z,55.90
2019-03-04T07:17:19.150Z,56.95
2019-03-04T07:18:19.042Z,57.87
2019-03-04T07:19:19.010Z,58.69
2019-03-04T07:20:21.931Z,58.58
2019-03-04T07:21:18.999Z,58.92
2019-03-04T07:22:19.718Z,59.64
2019-03-04T07:23:18.916Z,60.05
2019-03-04T07:24:18.912Z,60.35
2019-03-04T07:25:18.970Z,60.97
2019-03-04T07:26:18.906Z,61.41
2019-03-04T07:27:18.877Z,60.97
2019-03-04T07:28:19.724Z,61.58
2019-03-04T07:29:18.875Z,61.58
2019-03-04T07:30:18.911Z,61.69
2019-03-04T07:31:19.001Z,61.01
2019-03-04T07:32:18.980Z,58.50
2019-03-04T07:33:18.842Z,57.66
2019-03-04T07:34:18.809Z,57.43
2019-03-04T07:35:18.947Z,58.37
2019-03-04T07:36:18.772Z,60.53
2019-03-04T07:37:18.770Z,62.10
2019-03-04T07:38:18.772Z,62.61
2019-03-04T07:39:18.813Z,63.32
2019-03-04T07:40:18.746Z,64.38
2019-03-04T07:41:18.711Z,65.00
2019-03-04T07:42:18.772Z,64.89
2019-03-04T07:43:18.726Z,65.84
2019-03-04T07:44:18.736Z,65.84
2019-03-04T07:45:18.674Z,66.77
2019-03-04T07:46:18.675Z,68.21
2019-03-04T07:47:19.665Z,70.18
2019-03-04T07:48:18.684Z,72.82
2019-03-04T07:49:18.618Z,79.40
2019-03-04T07:50:18.662Z,85.28
2019-03-04T07:51:18.638Z,87.48
2019-03-04T07:52:18.763Z,87.83
2019-03-04T07:53:19.205Z,87.11
2019-03-04T07:54:19.221Z,84.84
2019-03-04T07:55:21.403Z,84.36
2019-03-04T07:56:18.721Z,84.01
2019-03-04T07:57:18.563Z,83.91
2019-03-04T07:58:18.536Z,84.99
2019-03-04T07:59:18.544Z,85.09
2019-03-04T08:00:18.531Z,86.53
2019-03-04T08:01:19.389Z,87.05
2019-03-04T08:02:18.626Z,86.68
2019-03-04T08:03:18.465Z,87.50
2019-03-04T08:04:19.217Z,87.40
2019-03-04T08:05:18.469Z,88.74
2019-03-04T08:06:18.435Z,87.50
2019-03-04T08:07:18.444Z,88.43
2019-03-04T08:08:18.421Z,87.71
2019-03-04T08:09:18.437Z,87.50
2019-03-04T08:10:18.421Z,87.81
2019-03-04T08:11:18.398Z,86.98
2019-03-04T08:12:18.369Z,87.60
2019-03-04T08:13:18.395Z,88.64
2019-03-04T08:14:19.240Z,88.32
2019-03-04T08:15:18.525Z,87.71
2019-03-04T08:16:18.331Z,88.43
2019-03-04T08:17:18.365Z,88.84
2019-03-04T08:18:18.513Z,89.19
2019-03-04T08:19:18.309Z,88.74
2019-03-04T08:20:18.352Z,88.64
2019-03-04T08:21:18.268Z,90.12
2019-03-04T08:22:18.254Z,89.61
2019-03-04T08:23:18.262Z,89.92
2019-03-04T08:24:18.256Z,90.22
2019-03-04T08:25:19.247Z,90.43
2019-03-04T08:26:18.233Z,90.19
2019-03-04T08:27:18.195Z,90.33
2019-03-04T08:28:18.227Z,89.15
2019-03-04T08:29:18.208Z,89.71
2019-03-04T08:30:18.197Z,90.28
2019-03-04T08:31:18.262Z,89.98
2019-03-04T08:32:18.141Z,90.22
2019-03-04T08:33:18.152Z,90.02
2019-03-04T08:34:18.136Z,90.02
2019-03-04T08:35:18.165Z,90.19
2019-03-04T08:36:18.900Z,89.87
2019-03-04T08:37:18.101Z,89.07
2019-03-04T08:38:18.075Z,88.08
2019-03-04T08:39:18.145Z,86.99
2019-03-04T08:40:18.085Z,82.65
2019-03-04T08:41:18.133Z,82.18
2019-03-04T08:42:18.056Z,81.62
2019-03-04T08:43:18.073Z,82.69
2019-03-04T08:44:18.023Z,82.18
2019-03-04T08:45:18.780Z,82.53
2019-03-04T08:46:18.012Z,80.70
2019-03-04T08:47:17.985Z,79.98
2019-03-04T08:48:17.962Z,81.21
2019-03-04T08:49:18.152Z,80.49
2019-03-04T08:50:18.983Z,80.63
2019-03-04T08:51:18.056Z,81.09
2019-03-04T08:52:17.924Z,81.29
2019-03-04T08:53:17.921Z,81.49
2019-03-04T08:54:17.914Z,81.05
2019-03-04T08:55:17.884Z,78.06
2019-03-04T08:56:20.421Z,74.19
2019-03-04T08:57:17.898Z,74.98
2019-03-04T08:58:17.853Z,75.42
2019-03-04T08:59:17.851Z,75.63
2019-03-04T09:00:17.831Z,77.68
2019-03-04T09:01:17.871Z,76.14
2019-03-04T09:02:17.864Z,75.32
2019-03-04T09:03:17.819Z,77.17
2019-03-04T09:04:17.837Z,77.41
2019-03-04T09:05:17.775Z,77.17
2019-03-04T09:06:20.489Z,75.35
2019-03-04T09:07:17.747Z,74.95
2019-03-04T09:08:17.759Z,72.65
2019-03-04T09:09:17.763Z,72.44
2019-03-04T09:10:17.721Z,72.72
2019-03-04T09:11:18.306Z,72.51
2019-03-04T09:12:17.735Z,72.72
2019-03-04T09:13:18.396Z,71.28
2019-03-04T09:14:17.666Z,70.56
2019-03-04T09:15:17.740Z,69.74
2019-03-04T09:16:18.262Z,68.91
2019-03-04T09:17:17.652Z,69.12
2019-03-04T09:18:17.636Z,69.81
2019-03-04T09:19:17.640Z,68.78
2019-03-04T09:20:17.631Z,68.16
2019-03-04T09:21:18.267Z,68.68
2019-03-04T09:22:17.592Z,68.57
2019-03-04T09:23:17.609Z,69.40
2019-03-04T09:24:17.574Z,69.19
2019-03-04T09:25:17.555Z,68.68
2019-03-04T09:26:17.640Z,70.63
2019-03-04T09:27:20.255Z,69.29
2019-03-04T09:28:17.518Z,69.50
2019-03-04T09:29:20.444Z,69.29
2019-03-04T09:30:17.499Z,68.78
2019-03-04T09:31:17.696Z,69.70
2019-03-04T09:32:17.488Z,69.70
2019-03-04T09:33:17.493Z,68.27
2019-03-04T09:34:18.405Z,68.34
2019-03-04T09:35:17.509Z,67.79
2019-03-04T09:36:17.539Z,67.90
2019-03-04T09:37:17.566Z,67.38
2019-03-04T09:38:18.319Z,66.56
2019-03-04T09:39:17.520Z,66.46
2019-03-04T09:40:17.388Z,65.81
2019-03-04T09:41:17.400Z,65.30
2019-03-04T09:42:17.427Z,66.05
2019-03-04T09:43:18.271Z,66.67
2019-03-04T09:44:17.343Z,66.56
2019-03-04T09:45:17.343Z,65.84
2019-03-04T09:46:17.394Z,65.23
2019-03-04T09:47:17.305Z,65.54
2019-03-04T09:48:18.423Z,65.20
2019-03-04T09:49:17.312Z,65.54
2019-03-04T09:50:17.282Z,64.59
2019-03-04T09:51:24.452Z,64.59
2019-03-04T09:52:18.250Z,64.79
2019-03-04T09:53:17.425Z,65.10
2019-03-04T09:54:18.247Z,64.69
2019-03-04T09:55:17.360Z,65.81
2019-03-04T09:56:17.214Z,65.84
2019-03-04T09:57:17.237Z,66.77
2019-03-04T09:58:17.226Z,68.75
2019-03-04T09:59:17.218Z,68.75
2019-03-04T10:00:17.197Z,68.85
2019-03-04T10:01:17.157Z,68.75
2019-03-04T10:02:17.169Z,69.16
2019-03-04T10:03:17.133Z,68.82
2019-03-04T10:04:17.796Z,68.00
2019-03-04T10:05:17.107Z,66.78
2019-03-04T10:06:17.103Z,65.92
2019-03-04T10:07:17.173Z,67.08
2019-03-04T10:08:17.214Z,68.24
2019-03-04T10:09:17.094Z,68.54
2019-03-04T10:10:17.898Z,69.54
2019-03-04T10:11:19.912Z,68.78
2019-03-04T10:12:18.924Z,69.19
2019-03-04T10:13:17.082Z,69.60
2019-03-04T10:14:17.088Z,69.29
2019-03-04T10:15:17.002Z,70.84
2019-03-04T10:16:18.899Z,70.63
2019-03-04T10:17:17.004Z,70.42
2019-03-04T10:18:16.983Z,71.45
2019-03-04T10:19:16.993Z,72.24
2019-03-04T10:20:18.252Z,71.14
2019-03-04T10:21:16.927Z,71.45
2019-03-04T10:22:16.964Z,72.48
2019-03-04T10:23:16.925Z,72.27
2019-03-04T10:24:17.508Z,71.25
2019-03-04T10:25:18.784Z,71.35
2019-03-04T10:26:22.548Z,70.32
2019-03-04T10:27:17.890Z,70.66
2019-03-04T10:28:16.846Z,72.00
2019-03-04T10:29:16.863Z,71.69
2019-03-04T10:30:16.863Z,71.48
2019-03-04T10:31:17.425Z,72.10
2019-03-04T10:32:16.834Z,72.72
2019-03-04T10:33:16.800Z,73.27
2019-03-04T10:34:16.844Z,73.78
2019-03-04T10:35:16.800Z,76.28
2019-03-04T10:36:16.878Z,77.41
2019-03-04T10:37:16.782Z,78.17
2019-03-04T10:38:22.628Z,79.19
2019-03-04T10:39:22.173Z,80.77
2019-03-04T10:40:19.666Z,81.39
2019-03-04T10:41:16.756Z,81.95
2019-03-04T10:42:16.740Z,83.84
2019-03-04T10:43:16.679Z,86.76
2019-03-04T10:44:16.780Z,87.10
2019-03-04T10:45:18.232Z,91.67
2019-03-04T10:46:16.683Z,92.38
2019-03-04T10:47:16.672Z,94.04
2019-03-04T10:48:16.627Z,94.72
2019-03-04T10:49:16.618Z,95.50
2019-03-04T10:50:16.656Z,95.44
2019-03-04T10:51:18.660Z,96.02
2019-03-04T10:52:16.583Z,96.12
2019-03-04T10:53:16.567Z,96.12
2019-03-04T10:54:16.641Z,96.23
2019-03-04T10:55:16.554Z,95.09
2019-03-04T10:56:17.261Z,96.44
2019-03-04T10:57:16.563Z,95.61
2019-03-04T10:58:16.535Z,95.09
2019-03-04T10:59:16.518Z,94.89
2019-03-04T11:00:16.503Z,94.89
2019-03-04T11:01:16.482Z,94.57
2019-03-04T11:02:16.504Z,94.68
2019-03-04T11:03:16.453Z,95.09
2019-03-04T11:04:16.487Z,95.50
2019-03-04T11:05:16.444Z,95.61
2019-03-04T11:06:16.424Z,95.09
2019-03-04T11:07:17.331Z,94.57
2019-03-04T11:08:16.404Z,94.31
2019-03-04T11:09:16.414Z,95.24
2019-03-04T11:10:16.398Z,95.92
2019-03-04T11:11:16.391Z,96.33
2019-03-04T11:12:20.290Z,96.48
2019-03-04T11:13:16.365Z,96.85
2019-03-04T11:14:16.394Z,96.54
2019-03-04T11:15:16.370Z,96.12
2019-03-04T11:16:16.331Z,95.65
2019-03-04T11:17:16.311Z,95.34
2019-03-04T11:18:16.324Z,96.12
2019-03-04T11:19:16.349Z,96.44
2019-03-04T11:20:16.274Z,95.50
2019-03-04T11:21:16.314Z,95.71
2019-03-04T11:22:16.262Z,96.23
2019-03-04T11:23:16.266Z,96.23
2019-03-04T11:24:16.231Z,96.12
2019-03-04T11:25:16.249Z,96.23
2019-03-04T11:26:16.210Z,96.12
2019-03-04T11:27:16.203Z,96.33
2019-03-04T11:28:17.918Z,95.29
2019-03-04T11:29:16.303Z,96.44
2019-03-04T11:30:16.192Z,95.81
2019-03-04T11:31:16.156Z,95.40
2019-03-04T11:32:16.153Z,94.93
2019-03-04T11:33:16.145Z,95.61
2019-03-04T11:34:16.159Z,95.09
2019-03-04T11:35:16.307Z,94.78
2019-03-04T11:36:16.095Z,95.61
2019-03-04T11:37:16.108Z,94.26
2019-03-04T11:38:16.072Z,95.40
2019-03-04T11:39:16.097Z,94.26
2019-03-04T11:40:16.052Z,94.89
2019-03-04T11:41:16.119Z,94.26
2019-03-04T11:42:16.168Z,94.01
2019-03-04T11:43:16.166Z,93.60
2019-03-04T11:44:16.039Z,93.24
2019-03-04T11:45:16.000Z,93.93
2019-03-04T11:46:16.034Z,93.16
2019-03-04T11:47:15.972Z,91.03
2019-03-04T11:48:15.968Z,91.61
2019-03-04T11:49:16.015Z,90.31
2019-03-04T11:50:15.946Z,91.20
2019-03-04T11:51:15.936Z,89.89
2019-03-04T11:52:15.930Z,90.20
2019-03-04T11:53:15.926Z,91.03
2019-03-04T11:54:16.855Z,90.10
2019-03-04T11:55:15.884Z,90.31
2019-03-04T11:56:15.868Z,89.86
2019-03-04T11:57:15.876Z,90.06
2019-03-04T11:58:15.853Z,89.19
2019-03-04T11:59:15.842Z,89.81
2019-03-04T12:00:15.966Z,88.22
2019-03-04T12:01:15.824Z,87.65
2019-03-04T12:02:15.827Z,88.96
2019-03-04T12:03:15.817Z,90.10
2019-03-04T12:04:15.839Z,90.04
2019-03-04T12:05:15.798Z,90.56
2019-03-04T12:06:15.824Z,91.59
2019-03-04T12:07:15.808Z,91.49
2019-03-04T12:08:16.783Z,91.80
2019-03-04T12:09:15.736Z,91.17
2019-03-04T12:10:15.998Z,91.17
2019-03-04T12:11:15.731Z,90.56
2019-03-04T12:12:15.703Z,90.35
2019-03-04T12:13:15.701Z,90.00
2019-03-04T12:14:15.766Z,88.92
2019-03-04T12:15:15.664Z,88.06
2019-03-04T12:16:15.694Z,87.42
2019-03-04T12:17:15.808Z,83.42
2019-03-04T12:18:15.637Z,83.72
2019-03-04T12:19:15.652Z,83.70
2019-03-04T12:20:15.746Z,85.01
2019-03-04T12:21:16.292Z,86.18
2019-03-04T12:22:15.605Z,86.63
2019-03-04T12:23:15.571Z,87.81
2019-03-04T12:24:15.585Z,87.60
2019-03-04T12:25:15.555Z,86.98
2019-03-04T12:26:18.490Z,87.92
2019-03-04T12:27:15.548Z,87.29
2019-03-04T12:28:15.522Z,87.46
2019-03-04T12:29:15.510Z,87.60
2019-03-04T12:30:15.495Z,87.50
2019-03-04T12:31:17.428Z,87.50
2019-03-04T12:32:15.488Z,87.85
2019-03-04T12:33:15.461Z,87.65
2019-03-04T12:34:24.444Z,87.81
2019-03-04T12:35:16.444Z,87.13
2019-03-04T12:36:15.433Z,86.88
2019-03-04T12:37:15.486Z,85.44
2019-03-04T12:38:15.413Z,86.84
2019-03-04T12:39:15.900Z,85.19
2019-03-04T12:40:15.951Z,85.54
2019-03-04T12:41:15.370Z,86.32
2019-03-04T12:42:15.404Z,85.23
2019-03-04T12:43:15.350Z,85.30
2019-03-04T12:44:15.341Z,86.22
2019-03-04T12:45:15.327Z,86.32
2019-03-04T12:46:15.332Z,85.60
2019-03-04T12:47:16.437Z,84.88
2019-03-04T12:48:15.944Z,85.25
2019-03-04T12:49:15.304Z,84.88
2019-03-04T12:50:15.270Z,85.15
2019-03-04T12:51:22.791Z,85.36
2019-03-04T12:52:18.938Z,86.60